Time;durP1;ratioP1;P1;durP2;ratioP2;P2;SDS_P1;SDS_P2;PMS_P1;PMS_P2;Temp;Humidity;BMP_temperature;BMP_pressure;BME280_temperature;BME280_humidity;BME280_pressure;Samples;Min_cycle;Max_cycle;Signal;HPM_P1;HPM_P2
2023/02/13 00:00:29;;;;;;;8.65;7.85;;;10.80;64.00;;;;;;4924991;29;20117;-79
2023/02/13 00:02:54;;;;;;;8.70;7.75;;;10.80;64.10;;;;;;4917370;29;20499;-77
2023/02/13 00:05:20;;;;;;;10.82;7.70;;;10.80;64.10;;;;;;4924176;29;20058;-78
2023/02/13 00:07:46;;;;;;;9.15;8.20;;;10.80;64.10;;;;;;4915936;29;20043;-77
2023/02/13 00:10:12;;;;;;;8.65;7.72;;;10.80;64.10;;;;;;4918181;29;20044;-79
2023/02/13 00:12:38;;;;;;;8.80;7.90;;;10.80;64.10;;;;;;4923523;29;20031;-77
2023/02/13 00:15:05;;;;;;;11.70;9.60;;;10.80;64.20;;;;;;4924175;29;20040;-78
2023/02/13 00:17:31;;;;;;;10.43;9.38;;;10.80;64.20;;;;;;4904682;29;20496;-76
2023/02/13 00:19:57;;;;;;;9.90;8.40;;;10.70;64.00;;;;;;4908537;29;20144;-76
2023/02/13 00:22:23;;;;;;;9.43;8.52;;;10.70;64.00;;;;;;4922868;29;20122;-77
2023/02/13 00:24:49;;;;;;;9.60;8.57;;;10.80;64.20;;;;;;4922167;29;20051;-76
2023/02/13 00:27:15;;;;;;;8.80;7.93;;;10.80;64.10;;;;;;4924276;29;20032;-76
2023/02/13 00:29:41;;;;;;;9.70;8.70;;;10.70;64.00;;;;;;4917985;29;20055;-76
2023/02/13 00:32:08;;;;;;;9.02;8.10;;;10.70;64.00;;;;;;4916698;29;20032;-75
2023/02/13 00:34:34;;;;;;;9.27;8.38;;;10.70;64.00;;;;;;4922326;29;20047;-76
2023/02/13 00:37:02;;;;;;;9.43;8.43;;;10.70;64.00;;;;;;4923144;29;20028;-77
2023/02/13 00:39:29;;;;;;;10.98;9.27;;;10.70;64.00;;;;;;4923091;29;20086;-76
2023/02/13 00:41:55;;;;;;;9.75;8.77;;;10.70;64.00;;;;;;4918236;29;20425;-77
2023/02/13 00:44:21;;;;;;;11.50;9.15;;;10.70;64.00;;;;;;4906642;29;20044;-76
2023/02/13 00:46:46;;;;;;;9.32;8.43;;;10.70;64.00;;;;;;4923616;29;20035;-77
2023/02/13 00:49:12;;;;;;;9.77;8.65;;;10.70;64.00;;;;;;4916916;29;20040;-77
2023/02/13 00:51:38;;;;;;;9.93;8.05;;;10.70;64.00;;;;;;4922181;29;20031;-76
2023/02/13 00:54:04;;;;;;;9.75;8.65;;;10.70;64.00;;;;;;4924065;29;20087;-77
2023/02/13 00:56:30;;;;;;;10.55;9.25;;;10.60;63.90;;;;;;4922519;29;20091;-77
2023/02/13 00:58:56;;;;;;;10.38;9.38;;;10.60;63.90;;;;;;4919359;29;20043;-77
2023/02/13 01:01:24;;;;;;;9.57;8.68;;;10.60;63.90;;;;;;4924314;29;20031;-77
2023/02/13 01:03:50;;;;;;;11.32;9.38;;;10.60;63.90;;;;;;4915515;29;20027;-77
2023/02/13 01:06:16;;;;;;;10.00;8.95;;;10.60;63.90;;;;;;4923161;29;20042;-77
2023/02/13 01:08:42;;;;;;;11.07;9.98;;;10.60;63.90;;;;;;4921143;29;20127;-76
2023/02/13 01:11:08;;;;;;;10.77;9.07;;;10.60;63.90;;;;;;4924066;29;20510;-76
2023/02/13 01:13:35;;;;;;;10.05;8.95;;;10.60;63.90;;;;;;4927157;29;20178;-76
2023/02/13 01:16:01;;;;;;;10.05;9.05;;;10.60;64.00;;;;;;4926877;29;20055;-77
2023/02/13 01:18:27;;;;;;;11.95;10.50;;;10.60;64.00;;;;;;4910825;29;20063;-77
2023/02/13 01:21:03;;;;;;;11.80;9.35;;;10.50;63.80;;;;;;4918347;29;20035;-76
2023/02/13 01:23:34;;;;;;;10.27;9.27;;;10.50;63.80;;;;;;4920232;29;20036;-77
2023/02/13 01:26:06;;;;;;;10.43;9.10;;;10.50;63.80;;;;;;4925383;29;20058;-77
2023/02/13 01:28:32;;;;;;;10.87;9.67;;;10.50;63.80;;;;;;4924825;29;20060;-76
2023/02/13 01:30:58;;;;;;;11.48;10.02;;;10.50;63.80;;;;;;4926567;29;20500;-79
2023/02/13 01:33:26;;;;;;;10.63;9.52;;;10.50;63.80;;;;;;4920200;29;20031;-78
2023/02/13 01:35:53;;;;;;;11.23;9.63;;;10.60;64.00;;;;;;4925412;29;20566;-78
2023/02/13 01:38:19;;;;;;;11.32;9.27;;;10.50;63.80;;;;;;4908629;29;20043;-78
2023/02/13 01:40:47;;;;;;;10.35;9.25;;;10.60;63.90;;;;;;4926563;29;20050;-77
2023/02/13 01:43:14;;;;;;;10.38;9.27;;;10.60;63.90;;;;;;4908443;29;20047;-79
2023/02/13 01:45:41;;;;;;;9.73;8.73;;;10.60;63.90;;;;;;4925398;29;20123;-79
2023/02/13 01:48:16;;;;;;;10.32;9.05;;;10.60;63.90;;;;;;4922404;29;20120;-77
2023/02/13 01:50:59;;;;;;;10.23;9.05;;;10.60;63.90;;;;;;4931028;29;20750;-76
2023/02/13 01:53:32;;;;;;;10.32;9.07;;;10.60;63.90;;;;;;4925852;29;20032;-77
2023/02/13 01:56:08;;;;;;;11.15;9.85;;;10.60;63.80;;;;;;4924716;29;20044;-77
2023/02/13 01:58:38;;;;;;;11.93;10.73;;;10.50;64.20;;;;;;4925339;29;20042;-76
2023/02/13 02:01:07;;;;;;;11.30;10.10;;;10.60;63.80;;;;;;4923213;29;20526;-77
2023/02/13 02:03:32;;;;;;;12.65;10.38;;;10.60;63.80;;;;;;4925653;29;20040;-78
2023/02/13 02:06:10;;;;;;;11.52;10.32;;;10.60;63.80;;;;;;4918654;29;20039;-77
2023/02/13 02:08:36;;;;;;;9.95;8.90;;;10.60;63.80;;;;;;4910613;29;20473;-77
2023/02/13 02:11:10;;;;;;;10.80;9.73;;;10.60;63.80;;;;;;4923435;29;20423;-77
2023/02/13 02:13:36;;;;;;;10.85;9.75;;;10.60;63.90;;;;;;4926454;29;20034;-77
2023/02/13 02:16:07;;;;;;;11.77;10.48;;;10.60;63.90;;;;;;4908178;29;20111;-76
2023/02/13 02:18:32;;;;;;;10.10;9.05;;;10.60;63.80;;;;;;4902213;29;20259;-78
2023/02/13 02:21:08;;;;;;;11.40;10.20;;;10.60;63.80;;;;;;4916923;29;20019;-77
2023/02/13 02:24:11;;;;;;;11.65;10.45;;;10.60;63.90;;;;;;4924959;29;20065;-78
2023/02/13 02:26:56;;;;;;;11.05;9.85;;;10.60;63.80;;;;;;4923638;29;20043;-78
2023/02/13 02:29:59;;;;;;;10.77;9.57;;;10.60;63.80;;;;;;4922787;29;20060;-78
2023/02/13 02:33:01;;;;;;;10.68;9.52;;;10.60;63.80;;;;;;4915180;29;20027;-76
2023/02/13 02:36:02;;;;;;;11.30;10.07;;;10.60;63.80;;;;;;4924092;29;20413;-77
2023/02/13 02:38:35;;;;;;;12.65;10.13;;;10.50;63.60;;;;;;4922414;29;20436;-77
2023/02/13 02:41:43;;;;;;;13.10;10.55;;;10.50;63.60;;;;;;4923024;29;20451;-77
2023/02/13 02:44:36;;;;;;;10.75;9.38;;;10.50;63.60;;;;;;4923740;29;20035;-76
2023/02/13 02:50:13;;;;;;;12.60;11.25;;;10.50;63.70;;;;;;4925920;29;20043;-76
2023/02/13 02:52:47;;;;;;;13.15;10.30;;;10.50;63.60;;;;;;4931260;29;20051;-77
2023/02/13 02:55:30;;;;;;;12.13;10.15;;;10.50;63.60;;;;;;4925938;29;20435;-76
2023/02/13 03:06:44;;;;;;;12.05;10.77;;;10.50;63.60;;;;;;4917347;29;20048;-76
2023/02/13 03:14:45;;;;;;;15.02;11.10;;;10.40;64.00;;;;;;4920458;29;20067;-76
2023/02/13 03:23:13;;;;;;;11.80;10.60;;;10.40;63.50;;;;;;4915105;29;20046;-78
2023/02/13 03:25:54;;;;;;;11.60;9.63;;;10.40;63.50;;;;;;4925354;29;20044;-79
2023/02/13 03:31:45;;;;;;;11.77;10.38;;;10.40;63.50;;;;;;4930141;29;20039;-79
2023/02/13 03:34:19;;;;;;;15.07;11.07;;;10.40;63.50;;;;;;4919994;29;20071;-78
2023/02/13 03:40:15;;;;;;;11.88;10.45;;;10.30;63.30;;;;;;4927246;29;20027;-79
2023/02/13 03:43:02;;;;;;;13.20;11.13;;;10.30;63.30;;;;;;4927737;29;20497;-78
2023/02/13 03:45:51;;;;;;;13.60;10.80;;;10.30;63.40;;;;;;4926298;29;20113;-78
2023/02/13 03:51:11;;;;;;;12.68;10.88;;;10.30;63.40;;;;;;4924225;29;20433;-76
2023/02/13 03:53:39;;;;;;;15.48;11.02;;;10.30;63.40;;;;;;4910372;29;20027;-78
2023/02/13 03:59:14;;;;;;;13.27;11.05;;;10.30;63.60;;;;;;4923459;29;20062;-77
2023/02/13 04:02:18;;;;;;;12.25;10.98;;;10.30;63.40;;;;;;4917686;29;20040;-77
2023/02/13 04:04:57;;;;;;;11.85;10.05;;;10.30;63.40;;;;;;4886894;29;20936;-79
2023/02/13 04:07:31;;;;;;;14.15;10.45;;;10.30;63.40;;;;;;4913425;29;20127;-79
2023/02/13 04:10:09;;;;;;;12.98;11.68;;;10.30;63.30;;;;;;4921419;29;20044;-78
2023/02/13 04:12:43;;;;;;;12.48;10.57;;;10.30;63.30;;;;;;4925834;29;20055;-76
2023/02/13 04:15:26;;;;;;;13.13;11.35;;;10.30;63.30;;;;;;4928481;29;20070;-78
2023/02/13 04:17:58;;;;;;;14.20;11.82;;;10.20;63.10;;;;;;4917414;29;20035;-79
2023/02/13 04:20:27;;;;;;;12.97;10.80;;;10.30;63.30;;;;;;4924619;29;20071;-78
2023/02/13 04:22:53;;;;;;;14.57;11.00;;;10.20;63.10;;;;;;4926786;29;20682;-78
2023/02/13 04:25:20;;;;;;;12.68;11.30;;;10.20;63.60;;;;;;4924852;29;20067;-77
2023/02/13 04:27:46;;;;;;;14.07;11.40;;;10.20;63.10;;;;;;4922928;29;20492;-78
2023/02/13 04:30:12;;;;;;;15.27;11.15;;;10.20;63.10;;;;;;4927571;29;20432;-77
2023/02/13 04:32:38;;;;;;;13.20;11.63;;;10.20;63.20;;;;;;4922225;29;20036;-77
2023/02/13 04:35:05;;;;;;;13.07;11.68;;;10.20;63.20;;;;;;4928059;29;20046;-76
2023/02/13 04:37:31;;;;;;;14.48;12.82;;;10.10;63.00;;;;;;4926852;29;20047;-77
2023/02/13 04:39:58;;;;;;;12.60;11.30;;;10.10;63.00;;;;;;4928426;29;20115;-78
2023/02/13 04:42:23;;;;;;;14.10;11.80;;;10.10;63.00;;;;;;4927026;29;20025;-78
2023/02/13 04:44:49;;;;;;;16.88;12.10;;;10.10;63.00;;;;;;4931207;29;20055;-78
2023/02/13 04:47:15;;;;;;;13.45;11.65;;;10.10;63.00;;;;;;4931768;29;20536;-78
2023/02/13 04:49:41;;;;;;;12.98;11.23;;;10.10;63.00;;;;;;4931871;29;20054;-78
2023/02/13 04:52:07;;;;;;;14.82;11.48;;;10.10;63.00;;;;;;4928028;29;20135;-77
2023/02/13 04:54:33;;;;;;;13.23;11.63;;;10.10;63.00;;;;;;4925509;29;20126;-78
2023/02/13 04:56:59;;;;;;;15.00;11.40;;;10.10;63.00;;;;;;4932425;29;20039;-77
2023/02/13 04:59:25;;;;;;;13.98;11.77;;;10.10;63.00;;;;;;4932572;29;20475;-77
2023/02/13 05:01:51;;;;;;;15.88;12.07;;;10.10;63.00;;;;;;4931009;29;20122;-78
2023/02/13 05:04:17;;;;;;;16.35;12.77;;;10.10;63.00;;;;;;4931943;29;20059;-77
2023/02/13 05:06:43;;;;;;;14.95;12.77;;;10.10;63.00;;;;;;4918637;29;20122;-77
2023/02/13 05:09:09;;;;;;;14.43;11.18;;;10.10;63.00;;;;;;4943243;28;20035;-76
2023/02/13 05:11:36;;;;;;;15.43;11.57;;;10.10;63.00;;;;;;4929301;29;20554;-75
2023/02/13 05:14:01;;;;;;;15.27;12.75;;;10.00;62.80;;;;;;4927920;29;20584;-77
2023/02/13 05:16:27;;;;;;;13.80;12.27;;;10.00;62.80;;;;;;4931629;29;20043;-78
2023/02/13 05:18:53;;;;;;;15.55;11.77;;;10.00;62.80;;;;;;4924472;29;20039;-77
2023/02/13 05:24:05;;;;;;;15.25;11.80;;;10.00;62.80;;;;;;4930454;29;20403;-77
2023/02/13 05:26:31;;;;;;;16.35;12.77;;;10.00;62.80;;;;;;4930542;29;20036;-77
2023/02/13 05:31:42;;;;;;;15.38;12.98;;;10.00;62.90;;;;;;4928053;29;20655;-78
2023/02/13 05:34:08;;;;;;;15.35;12.45;;;10.00;62.90;;;;;;4930946;29;20027;-76
2023/02/13 05:36:34;;;;;;;14.40;11.60;;;10.00;62.90;;;;;;4913188;29;20062;-78
2023/02/13 05:39:00;;;;;;;14.57;12.85;;;9.90;62.70;;;;;;4925804;29;20128;-78
2023/02/13 05:41:26;;;;;;;14.75;11.85;;;9.90;62.70;;;;;;4920264;29;20067;-78
2023/02/13 05:43:52;;;;;;;14.55;12.57;;;9.90;62.80;;;;;;4929623;29;20066;-77
2023/02/13 05:46:18;;;;;;;14.48;11.85;;;9.90;62.80;;;;;;4931065;29;20059;-78
2023/02/13 05:48:44;;;;;;;15.18;12.25;;;10.00;63.00;;;;;;4920966;29;20414;-77
2023/02/13 05:51:10;;;;;;;16.40;12.27;;;10.00;63.00;;;;;;4926097;29;20047;-77
2023/02/13 05:53:36;;;;;;;13.98;12.48;;;9.90;62.90;;;;;;4925643;29;20131;-76
2023/02/13 05:56:06;;;;;;;14.38;11.80;;;9.90;62.80;;;;;;4926860;29;20035;-78
2023/02/13 05:58:33;;;;;;;14.13;12.10;;;9.90;62.90;;;;;;4921754;29;20476;-78
2023/02/13 06:00:59;;;;;;;13.43;11.75;;;9.90;62.90;;;;;;4927212;29;20091;-79
2023/02/13 06:03:26;;;;;;;15.93;12.80;;;9.90;62.90;;;;;;4936233;28;20031;-80
2023/02/13 06:05:54;;;;;;;14.60;12.95;;;9.90;63.00;;;;;;4919036;29;20035;-79
2023/02/13 06:08:20;;;;;;;14.18;12.00;;;9.90;63.00;;;;;;4920809;29;20067;-78
2023/02/13 06:10:47;;;;;;;13.40;11.98;;;9.90;63.00;;;;;;4918550;29;20066;-80
2023/02/13 06:13:14;;;;;;;16.13;12.27;;;9.90;63.00;;;;;;4920371;29;20541;-78
2023/02/13 06:15:40;;;;;;;14.82;12.85;;;9.80;62.90;;;;;;4921169;29;20483;-79
2023/02/13 06:18:06;;;;;;;15.07;11.88;;;9.80;62.90;;;;;;4923691;29;20128;-79
2023/02/13 06:20:33;;;;;;;18.52;13.65;;;9.80;62.90;;;;;;4900053;29;20638;-77
2023/02/13 06:22:59;;;;;;;13.98;12.05;;;9.80;63.00;;;;;;4924335;29;20042;-79
2023/02/13 06:25:25;;;;;;;24.05;13.93;;;9.70;62.80;;;;;;4924877;29;20048;-78
2023/02/13 06:27:51;;;;;;;17.30;14.38;;;9.70;63.30;;;;;;4918334;29;20468;-77
2023/02/13 06:30:17;;;;;;;21.17;14.02;;;9.80;62.80;;;;;;4921631;29;20056;-77
2023/02/13 06:32:45;;;;;;;18.80;13.88;;;9.70;62.50;;;;;;4919706;29;20051;-78
2023/02/13 06:35:12;;;;;;;16.85;13.57;;;9.70;62.60;;;;;;4906539;29;20042;-77
2023/02/13 06:37:38;;;;;;;17.02;13.43;;;9.70;62.60;;;;;;4918401;29;20028;-78
2023/02/13 06:40:06;;;;;;;19.27;14.30;;;9.70;62.60;;;;;;4923191;29;20039;-77
2023/02/13 06:42:32;;;;;;;19.67;13.68;;;9.60;62.40;;;;;;4923999;29;20537;-76
2023/02/13 06:44:57;;;;;;;16.48;12.73;;;9.60;62.40;;;;;;4922083;29;20106;-76
2023/02/13 06:47:23;;;;;;;16.02;14.05;;;9.60;62.40;;;;;;4922219;29;20055;-78
2023/02/13 06:49:49;;;;;;;21.92;14.27;;;9.50;62.20;;;;;;4920774;29;20095;-78
2023/02/13 06:52:15;;;;;;;19.25;13.65;;;9.50;62.30;;;;;;4927315;29;20044;-77
2023/02/13 06:54:41;;;;;;;16.15;13.50;;;9.50;62.40;;;;;;4921695;29;20217;-78
2023/02/13 06:57:07;;;;;;;16.63;13.27;;;9.60;63.30;;;;;;4921745;29;20395;-78
2023/02/13 06:59:33;;;;;;;18.73;13.27;;;9.60;63.50;;;;;;4921713;29;20030;-83
2023/02/13 07:01:59;;;;;;;18.50;12.88;;;9.70;63.80;;;;;;4922573;29;20094;-78
2023/02/13 07:04:26;;;;;;;18.08;13.20;;;9.70;63.70;;;;;;4916811;29;20449;-79
2023/02/13 07:06:56;;;;;;;19.85;12.48;;;9.70;63.80;;;;;;4914307;29;20069;-82
2023/02/13 07:09:23;;;;;;;18.30;12.55;;;9.70;63.80;;;;;;4927009;29;20042;-79
2023/02/13 07:11:49;;;;;;;17.95;12.65;;;9.80;64.00;;;;;;4926579;29;20332;-79
2023/02/13 07:14:15;;;;;;;15.75;12.40;;;9.70;63.90;;;;;;4918383;29;20055;-79
2023/02/13 07:16:41;;;;;;;18.42;13.98;;;9.80;64.10;;;;;;4921604;29;20059;-77
2023/02/13 07:19:07;;;;;;;16.52;13.73;;;9.80;64.20;;;;;;4917039;29;20122;-77
2023/02/13 07:21:33;;;;;;;17.45;13.38;;;9.80;64.30;;;;;;4924466;29;20099;-88
2023/02/13 07:23:59;;;;;;;17.67;13.43;;;9.80;64.30;;;;;;4931118;29;20042;-87
2023/02/13 07:26:25;;;;;;;21.02;14.05;;;9.80;64.40;;;;;;4923346;29;20043;-86
2023/02/13 07:28:52;;;;;;;17.83;12.73;;;9.80;64.50;;;;;;4929518;29;20055;-89
2023/02/13 07:31:18;;;;;;;18.17;13.20;;;9.90;64.70;;;;;;4927402;28;20031;-87
2023/02/13 07:33:47;;;;;;;22.45;14.27;;;9.90;64.80;;;;;;4930936;29;20027;-90
2023/02/13 07:36:13;;;;;;;17.80;14.20;;;9.90;64.60;;;;;;4919690;28;20043;-77
2023/02/13 07:38:39;;;;;;;17.83;13.20;;;9.90;64.70;;;;;;4922196;29;20054;-79
2023/02/13 07:41:05;;;;;;;16.52;12.25;;;9.80;64.60;;;;;;4921062;29;20448;-79
2023/02/13 07:43:30;;;;;;;17.15;12.40;;;9.90;64.80;;;;;;4922704;29;20091;-78
2023/02/13 07:46:02;;;;;;;17.08;13.73;;;9.90;64.80;;;;;;4921646;29;20054;-79
2023/02/13 07:48:30;;;;;;;20.55;13.52;;;9.90;64.80;;;;;;4919043;29;20538;-76
2023/02/13 07:51:01;;;;;;;16.63;11.88;;;9.90;64.80;;;;;;4933972;29;20527;-81
2023/02/13 07:53:28;;;;;;;18.17;13.15;;;9.90;65.40;;;;;;4916422;29;20031;-82
2023/02/13 07:55:54;;;;;;;16.33;12.55;;;10.10;66.00;;;;;;4918912;29;20649;-80
2023/02/13 07:58:20;;;;;;;14.45;11.60;;;10.30;66.50;;;;;;4916706;29;20039;-81
2023/02/13 08:00:46;;;;;;;16.33;11.93;;;10.40;66.60;;;;;;4923957;29;20400;-82
2023/02/13 08:03:12;;;;;;;22.40;14.82;;;10.70;67.00;;;;;;4919083;29;20035;-84
2023/02/13 08:05:39;;;;;;;14.73;11.77;;;10.80;66.90;;;;;;4926567;29;20387;-87
2023/02/13 08:08:05;;;;;;;14.07;11.45;;;11.00;67.00;;;;;;4921646;29;20087;-81
2023/02/13 08:13:17;;;;;;;16.60;11.95;;;11.30;67.00;;;;;;4924516;29;20038;-81
2023/02/13 08:15:43;;;;;;;16.83;11.02;;;11.50;67.00;;;;;;4923255;29;20050;-81
2023/02/13 08:18:09;;;;;;;15.05;11.18;;;11.60;66.90;;;;;;4915909;29;20044;-80
2023/02/13 08:20:35;;;;;;;14.63;10.52;;;11.80;67.60;;;;;;4915671;29;20040;-73
2023/02/13 08:23:04;;;;;;;14.27;10.75;;;11.90;67.10;;;;;;4919785;29;21815;-74
2023/02/13 08:25:30;;;;;;;16.02;11.32;;;12.00;67.10;;;;;;4918362;29;20048;-74
2023/02/13 08:27:56;;;;;;;14.85;11.15;;;12.10;67.10;;;;;;4917609;29;20158;-76
2023/02/13 08:30:22;;;;;;;13.43;10.68;;;12.20;67.10;;;;;;4919184;29;20095;-75
2023/02/13 08:32:48;;;;;;;13.15;10.20;;;12.40;67.20;;;;;;4912745;28;20397;-76
2023/02/13 08:35:14;;;;;;;20.20;10.50;;;12.50;67.20;;;;;;4918717;29;20381;-76
2023/02/13 08:37:40;;;;;;;13.27;9.80;;;12.60;67.10;;;;;;4919110;29;20036;-76
2023/02/13 08:40:09;;;;;;;11.50;9.82;;;12.80;67.20;;;;;;4919932;29;20495;-76
2023/02/13 08:42:36;;;;;;;12.10;10.80;;;12.90;67.10;;;;;;4915461;29;20134;-76
2023/02/13 08:45:02;;;;;;;13.43;10.32;;;13.00;67.00;;;;;;4920863;29;20054;-76
2023/02/13 08:47:28;;;;;;;15.82;9.65;;;13.20;67.10;;;;;;4919361;29;20485;-77
2023/02/13 08:49:54;;;;;;;15.30;9.50;;;13.30;66.90;;;;;;4905770;29;20095;-76
2023/02/13 08:52:20;;;;;;;11.95;9.00;;;13.40;66.80;;;;;;4911579;29;20028;-76
2023/02/13 08:54:46;;;;;;;14.07;10.40;;;13.50;66.80;;;;;;4919650;29;20472;-76
2023/02/13 08:57:12;;;;;;;11.57;9.95;;;13.60;66.70;;;;;;4919872;29;20032;-78
2023/02/13 08:59:38;;;;;;;16.08;11.10;;;13.70;66.60;;;;;;4920941;29;20546;-88
2023/02/13 09:02:04;;;;;;;14.75;11.50;;;13.80;66.40;;;;;;4925395;29;20062;-80
2023/02/13 09:04:30;;;;;;;13.27;11.20;;;13.80;66.00;;;;;;4909106;29;20039;-79
2023/02/13 09:06:56;;;;;;;13.98;11.20;;;13.70;65.50;;;;;;4915436;29;20048;-80
2023/02/13 09:09:22;;;;;;;14.25;12.52;;;13.70;65.30;;;;;;4918598;29;20066;-86
2023/02/13 09:11:49;;;;;;;18.30;13.73;;;13.60;65.00;;;;;;4923372;29;20036;-87
2023/02/13 09:14:15;;;;;;;15.90;12.45;;;13.50;64.80;;;;;;4928874;29;20133;-90
2023/02/13 09:16:41;;;;;;;18.92;12.80;;;13.40;64.50;;;;;;4930195;29;20031;-86
2023/02/13 09:19:07;;;;;;;15.40;13.23;;;13.40;64.50;;;;;;4933481;29;20066;-88
2023/02/13 09:21:34;;;;;;;16.55;12.80;;;13.30;64.20;;;;;;4927380;29;20036;-84
2023/02/13 09:24:00;;;;;;;17.02;14.63;;;13.20;64.00;;;;;;4929836;29;20296;-80
2023/02/13 09:26:25;;;;;;;17.58;13.68;;;13.20;64.00;;;;;;4926703;28;20040;-82
2023/02/13 09:28:53;;;;;;;18.02;14.90;;;13.10;63.70;;;;;;4925678;29;20051;-81
2023/02/13 09:31:20;;;;;;;18.50;15.48;;;13.10;63.70;;;;;;4924441;29;20518;-80
2023/02/13 09:33:48;;;;;;;16.70;13.73;;;13.10;63.50;;;;;;4923424;29;20039;-81
2023/02/13 09:36:20;;;;;;;16.02;13.23;;;13.10;63.40;;;;;;4916768;29;20525;-82
2023/02/13 09:38:50;;;;;;;15.25;13.15;;;13.10;63.20;;;;;;4925424;29;20035;-80
2023/02/13 09:41:27;;;;;;;16.90;13.68;;;13.10;63.10;;;;;;4921785;29;20127;-82
2023/02/13 09:44:32;;;;;;;16.83;14.35;;;13.00;62.80;;;;;;4923535;29;20492;-78
2023/02/13 09:47:16;;;;;;;18.55;14.30;;;13.10;62.80;;;;;;4921331;29;20296;-77
2023/02/13 09:49:49;;;;;;;16.20;13.90;;;13.10;62.70;;;;;;4920475;29;20484;-78
2023/02/13 09:52:15;;;;;;;16.65;14.63;;;13.10;62.60;;;;;;4920735;29;20099;-78
2023/02/13 09:54:41;;;;;;;18.70;15.23;;;13.20;62.70;;;;;;4920700;29;20039;-79
2023/02/13 09:57:38;;;;;;;17.75;14.38;;;13.20;62.50;;;;;;4922083;29;20047;-78
2023/02/13 10:00:17;;;;;;;18.63;14.88;;;13.20;62.30;;;;;;4923568;29;20276;-81
2023/02/13 10:03:12;;;;;;;17.25;14.73;;;13.20;62.30;;;;;;4920668;29;20295;-81
2023/02/13 10:05:56;;;;;;;19.20;13.80;;;13.20;62.00;;;;;;4919678;29;20043;-79
2023/02/13 10:09:06;;;;;;;20.35;14.63;;;13.30;62.10;;;;;;4914710;29;20114;-77
2023/02/13 10:11:51;;;;;;;18.05;15.13;;;13.30;61.90;;;;;;4899410;29;20046;-81
2023/02/13 10:14:24;;;;;;;17.58;13.65;;;13.30;61.80;;;;;;4886231;29;20071;-77
2023/02/13 10:17:28;;;;;;;16.73;14.38;;;13.30;61.80;;;;;;4899965;29;20048;-78
2023/02/13 10:20:25;;;;;;;15.85;13.68;;;13.30;61.50;;;;;;4920353;29;20394;-79
2023/02/13 10:22:58;;;;;;;16.30;14.40;;;13.40;61.70;;;;;;4914353;29;20487;-81
2023/02/13 10:25:28;;;;;;;19.00;15.43;;;13.40;61.70;;;;;;4921071;29;20051;-80
2023/02/13 10:28:06;;;;;;;16.50;13.82;;;13.40;61.60;;;;;;4922159;29;20039;-81
2023/02/13 10:30:48;;;;;;;16.75;14.70;;;13.40;61.60;;;;;;4923263;29;20504;-80
2023/02/13 10:33:29;;;;;;;20.27;16.33;;;13.40;61.50;;;;;;4922674;29;20520;-84
2023/02/13 10:36:04;;;;;;;19.17;15.60;;;13.40;61.40;;;;;;4925335;29;20039;-83
2023/02/13 10:38:32;;;;;;;16.58;14.50;;;13.40;61.30;;;;;;4936435;29;20152;-86
2023/02/13 10:41:36;;;;;;;15.90;14.18;;;13.50;61.40;;;;;;4917435;28;20043;-85
2023/02/13 10:44:11;;;;;;;19.17;16.05;;;13.50;61.00;;;;;;4922899;29;20118;-87
2023/02/13 10:47:11;;;;;;;20.52;14.77;;;13.60;61.20;;;;;;4924183;29;20106;-86
2023/02/13 10:50:00;;;;;;;18.20;14.73;;;13.60;61.00;;;;;;4914826;29;20624;-85
2023/02/13 10:52:47;;;;;;;22.48;16.38;;;13.60;60.70;;;;;;4924188;29;20099;-84
2023/02/13 10:55:34;;;;;;;19.90;16.20;;;13.70;60.90;;;;;;4921495;29;20407;-87
2023/02/13 10:58:44;;;;;;;22.00;15.60;;;13.70;60.50;;;;;;4919497;29;20134;-87
2023/02/13 11:01:47;;;;;;;23.30;17.00;;;13.70;60.30;;;;;;4922789;29;20043;-83
2023/02/13 11:04:17;;;;;;;22.23;15.30;;;13.70;60.20;;;;;;4924497;29;20415;-85
2023/02/13 11:06:59;;;;;;;25.70;14.95;;;13.60;60.40;;;;;;4922615;29;20584;-83
2023/02/13 11:09:27;;;;;;;26.10;16.10;;;13.70;61.70;;;;;;4922693;29;20491;-85
2023/02/13 11:11:53;;;;;;;21.58;14.63;;;13.90;61.70;;;;;;4914810;29;20036;-78
2023/02/13 11:14:21;;;;;;;24.02;16.27;;;14.10;62.00;;;;;;4921975;29;20038;-79
2023/02/13 11:17:04;;;;;;;19.35;13.43;;;14.20;62.10;;;;;;4920927;29;20166;-79
2023/02/13 11:19:32;;;;;;;19.73;13.82;;;14.40;62.50;;;;;;4914924;29;20083;-85
2023/02/13 11:22:12;;;;;;;27.83;14.73;;;14.50;62.40;;;;;;4922515;29;20027;-82
2023/02/13 11:24:54;;;;;;;23.63;15.57;;;14.70;62.60;;;;;;4918227;29;20095;-83
2023/02/13 11:27:26;;;;;;;19.15;15.30;;;14.80;62.80;;;;;;4920621;29;20154;-80
2023/02/13 11:30:07;;;;;;;22.13;15.98;;;14.80;62.70;;;;;;4918691;29;20091;-84
2023/02/13 11:32:34;;;;;;;20.10;15.23;;;14.80;62.70;;;;;;4922154;29;20040;-81
2023/02/13 11:35:27;;;;;;;20.95;15.95;;;14.80;62.70;;;;;;4922214;29;20050;-80
2023/02/13 11:38:17;;;;;;;18.30;14.80;;;14.70;62.60;;;;;;4914883;29;20036;-81
2023/02/13 11:40:49;;;;;;;22.67;16.02;;;14.70;62.60;;;;;;4921910;29;20042;-79
2023/02/13 11:43:25;;;;;;;19.52;15.95;;;14.60;62.60;;;;;;4922657;29;20102;-87
2023/02/13 11:46:08;;;;;;;23.73;16.55;;;14.60;62.60;;;;;;4920734;29;20043;-86
2023/02/13 11:48:34;;;;;;;21.42;16.85;;;14.50;62.20;;;;;;4925912;29;20592;-87
2023/02/13 11:51:02;;;;;;;21.15;17.02;;;14.40;62.10;;;;;;4928028;29;20523;-91
2023/02/13 11:53:36;;;;;;;23.50;18.85;;;14.30;61.40;;;;;;4933523;28;20070;-89
2023/02/13 11:56:14;;;;;;;23.88;18.00;;;14.20;60.90;;;;;;4924626;29;20043;-85
2023/02/13 11:58:41;;;;;;;25.58;19.23;;;14.00;60.30;;;;;;4920795;29;20040;-84
2023/02/13 12:01:18;;;;;;;24.17;18.85;;;13.90;60.80;;;;;;4922125;29;20821;-83
2023/02/13 12:04:05;;;;;;;19.67;16.77;;;13.70;59.60;;;;;;4915411;29;20047;-77
2023/02/13 12:06:38;;;;;;;27.25;19.60;;;13.60;59.50;;;;;;4902959;29;20087;-76
2023/02/13 12:09:11;;;;;;;20.30;17.92;;;13.40;59.30;;;;;;4915497;29;20495;-77
2023/02/13 12:11:37;;;;;;;;;;;13.30;59.10;;;;;;4924133;29;20164;-78
2023/02/13 12:14:03;;;;;;;24.55;18.05;;;13.20;59.20;;;;;;4921386;29;19957;-76
2023/02/13 12:16:39;;;;;;;23.38;18.85;;;13.10;59.30;;;;;;4903872;29;20055;-77
2023/02/13 12:19:12;;;;;;;24.10;19.80;;;13.00;59.00;;;;;;4920704;29;20038;-78
2023/02/13 12:21:42;;;;;;;;;;;12.90;58.70;;;;;;4918845;29;20063;-75
2023/02/13 12:24:10;;;;;;;39.97;22.95;;;12.90;58.90;;;;;;4904648;29;19997;-77
2023/02/13 12:26:42;;;;;;;37.08;24.25;;;12.90;59.30;;;;;;4904809;29;20535;-85
2023/02/13 12:29:26;;;;;;;28.95;21.73;;;12.90;59.70;;;;;;4921598;29;20523;-84
2023/02/13 12:32:18;;;;;;;30.20;19.85;;;12.90;59.70;;;;;;4922523;29;20039;-85
2023/02/13 12:35:22;;;;;;;24.60;18.85;;;13.10;59.90;;;;;;4922682;29;20043;-81
2023/02/13 12:38:04;;;;;;;25.08;18.40;;;13.10;59.70;;;;;;4898683;29;20039;-79
2023/02/13 12:40:39;;;;;;;23.73;18.25;;;13.20;59.70;;;;;;4921107;29;20895;-77
2023/02/13 12:43:08;;;;;;;25.40;19.52;;;13.30;59.70;;;;;;4921747;29;20155;-78
2023/02/13 12:45:42;;;;;;;35.35;21.35;;;13.30;59.50;;;;;;4916448;28;20424;-79
2023/02/13 12:48:30;;;;;;;21.38;18.25;;;13.40;59.50;;;;;;4917250;29;20516;-78
2023/02/13 12:51:10;;;;;;;23.25;17.10;;;13.40;59.50;;;;;;4916245;29;20031;-76
2023/02/13 12:54:01;;;;;;;22.33;18.58;;;13.50;59.50;;;;;;4931276;29;20083;-77
2023/02/13 12:56:39;;;;;;;23.75;17.45;;;13.50;59.30;;;;;;4919542;29;20050;-78
2023/02/13 12:59:28;;;;;;;23.98;18.33;;;13.50;59.30;;;;;;4919924;29;20036;-78
2023/02/13 13:02:26;;;;;;;23.90;19.58;;;13.50;59.20;;;;;;4926363;29;20126;-80
2023/02/13 13:05:31;;;;;;;22.35;17.63;;;13.60;59.30;;;;;;4920356;29;20071;-76
2023/02/13 13:08:18;;;;;;;21.23;17.30;;;13.60;59.20;;;;;;4918334;29;20040;-76
2023/02/13 13:11:11;;;;;;;26.67;19.30;;;13.60;59.00;;;;;;4919725;29;20035;-77
2023/02/13 13:14:19;;;;;;;22.33;19.80;;;13.60;58.90;;;;;;4912840;29;20148;-80
2023/02/13 13:16:48;;;;;;;23.75;17.08;;;13.60;58.80;;;;;;4926855;29;20450;-82
2023/02/13 13:19:45;;;;;;;21.27;18.75;;;13.70;59.00;;;;;;4925981;29;20305;-83
2023/02/13 13:22:26;;;;;;;20.20;16.98;;;13.70;58.80;;;;;;4933670;29;20111;-86
2023/02/13 13:25:04;;;;;;;21.25;19.02;;;13.70;58.70;;;;;;4929763;29;20040;-89
2023/02/13 13:27:36;;;;;;;21.50;19.20;;;13.80;58.60;;;;;;4921769;29;20677;-83
2023/02/13 13:30:24;;;;;;;26.08;19.55;;;13.80;58.40;;;;;;4910239;29;20052;-85
2023/02/13 13:32:56;;;;;;;21.35;19.05;;;13.80;58.10;;;;;;4922968;29;20040;-88
2023/02/13 13:35:23;;;;;;;21.52;19.23;;;13.70;57.70;;;;;;4922446;29;20044;-87
2023/02/13 13:38:02;;;;;;;24.73;19.65;;;13.70;57.60;;;;;;4920338;28;20040;-84
2023/02/13 13:40:56;;;;;;;24.77;22.20;;;13.70;57.60;;;;;;4926187;29;20040;-84
2023/02/13 13:43:50;;;;;;;23.73;20.13;;;13.80;57.30;;;;;;4918304;29;20028;-84